Time;durP1;ratioP1;P1;durP2;ratioP2;P2;SDS_P1;SDS_P2;PMS_P1;PMS_P2;Temp;Humidity;BMP_temperature;BMP_pressure;BME280_temperature;BME280_humidity;BME280_pressure;Samples;Min_cycle;Max_cycle;Signal;HPM_P1;HPM_P2
2022/06/19 00:01:14;;;;;;;7.50;1.92;;;18.20;87.20;;;;;;4948166;28;20394;-35
2022/06/19 00:03:47;;;;;;;7.57;2.00;;;18.20;87.00;;;;;;4949381;29;20042;-35
2022/06/19 00:06:13;;;;;;;;;;;18.20;86.90;;;;;;4949642;28;20498;-35
2022/06/19 00:08:39;;;;;;;7.22;1.60;;;18.00;86.90;;;;;;4949448;28;19917;-34
2022/06/19 00:11:06;;;;;;;8.73;2.40;;;18.00;87.00;;;;;;4949717;28;20049;-33
2022/06/19 00:13:32;;;;;;;11.25;1.85;;;17.90;87.00;;;;;;4948622;29;20031;-34
2022/06/19 00:15:58;;;;;;;8.38;1.60;;;17.90;87.00;;;;;;4949330;29;20296;-34
2022/06/19 00:18:23;;;;;;;7.03;1.90;;;17.90;87.10;;;;;;4949087;29;20023;-34
2022/06/19 00:20:49;;;;;;;4.43;1.60;;;17.80;87.20;;;;;;4947635;28;20077;-36
2022/06/19 00:23:14;;;;;;;5.55;1.80;;;17.80;87.30;;;;;;4948294;29;20498;-35
2022/06/19 00:25:40;;;;;;;7.63;2.20;;;17.70;87.60;;;;;;4948619;29;20027;-35
2022/06/19 00:28:07;;;;;;;7.10;2.03;;;17.70;87.80;;;;;;4948180;28;20051;-34
2022/06/19 00:30:33;;;;;;;10.57;2.50;;;17.60;87.90;;;;;;4949011;28;20695;-35
2022/06/19 00:32:59;;;;;;;5.55;2.10;;;17.60;88.30;;;;;;4949296;29;20043;-35
2022/06/19 00:35:26;;;;;;;7.32;2.13;;;17.60;88.50;;;;;;4948065;28;20023;-35
2022/06/19 00:37:52;;;;;;;10.32;2.22;;;17.50;88.60;;;;;;4949078;28;20083;-35
2022/06/19 00:40:18;;;;;;;8.75;2.60;;;17.50;88.70;;;;;;4949354;28;20035;-34
2022/06/19 00:42:44;;;;;;;5.47;1.95;;;17.50;88.80;;;;;;4947690;29;20543;-35
2022/06/19 00:45:39;;;;;;;6.53;1.75;;;17.50;88.80;;;;;;4949577;29;20023;-35
2022/06/19 00:48:19;;;;;;;9.25;1.83;;;17.50;89.10;;;;;;4948212;28;20039;-34
2022/06/19 00:50:47;;;;;;;6.75;1.83;;;17.40;89.10;;;;;;4949143;28;20031;-34
2022/06/19 00:53:17;;;;;;;5.88;1.70;;;17.40;89.20;;;;;;4948918;28;20097;-35
2022/06/19 00:55:46;;;;;;;5.57;1.67;;;17.40;89.20;;;;;;4948818;28;20027;-34
2022/06/19 00:58:24;;;;;;;8.23;2.50;;;17.40;89.20;;;;;;4949057;28;20055;-34
2022/06/19 01:00:55;;;;;;;9.00;2.17;;;17.40;89.30;;;;;;4929697;29;20074;-35
2022/06/19 01:03:26;;;;;;;8.95;2.22;;;17.40;89.30;;;;;;4944345;29;20042;-34
2022/06/19 01:05:52;;;;;;;11.63;2.20;;;17.40;89.40;;;;;;4948937;28;20059;-34
2022/06/19 01:08:18;;;;;;;9.70;2.30;;;17.40;89.50;;;;;;4948628;28;20031;-34
2022/06/19 01:10:47;;;;;;;7.75;1.98;;;17.30;89.60;;;;;;4948611;29;20039;-34
2022/06/19 01:13:15;;;;;;;10.43;2.20;;;17.20;89.70;;;;;;4948480;28;20114;-34
2022/06/19 01:15:41;;;;;;;6.60;2.50;;;17.20;89.80;;;;;;4948933;28;20463;-35
2022/06/19 01:18:10;;;;;;;10.07;2.22;;;17.10;89.80;;;;;;4948452;28;20039;-34
2022/06/19 01:20:37;;;;;;;8.75;2.33;;;17.10;89.70;;;;;;4948288;28;20466;-34
2022/06/19 01:23:23;;;;;;;11.57;2.08;;;17.10;89.70;;;;;;4948134;28;20050;-34
2022/06/19 01:25:50;;;;;;;8.05;2.03;;;17.00;89.60;;;;;;4948469;28;20091;-34
2022/06/19 01:31:21;;;;;;;9.60;2.38;;;17.00;88.60;;;;;;4947029;29;20403;-34
2022/06/19 01:33:48;;;;;;;;;;;16.90;88.60;;;;;;4947632;28;20074;-35
2022/06/19 01:36:15;;;;;;;10.68;2.03;;;16.80;89.00;;;;;;4948281;28;20059;-35
2022/06/19 01:38:46;;;;;;;8.85;2.13;;;16.80;88.90;;;;;;4946444;28;20517;-35
2022/06/19 01:41:15;;;;;;;9.98;2.13;;;16.70;88.50;;;;;;4948182;28;20434;-34
2022/06/19 01:43:41;;;;;;;9.68;2.15;;;16.70;87.70;;;;;;4948135;28;20521;-34
2022/06/19 01:46:07;;;;;;;7.95;2.13;;;16.70;86.80;;;;;;4947855;29;20043;-34
2022/06/19 01:48:34;;;;;;;8.43;2.00;;;16.70;86.40;;;;;;4947654;28;20415;-35
2022/06/19 01:51:03;;;;;;;7.45;1.95;;;16.70;86.00;;;;;;4947218;28;20023;-35
2022/06/19 01:53:43;;;;;;;7.75;2.25;;;16.70;85.30;;;;;;4947171;28;20039;-35
2022/06/19 01:56:10;;;;;;;6.55;1.70;;;16.70;84.30;;;;;;4947737;28;20126;-34
2022/06/19 01:58:39;;;;;;;8.18;1.73;;;16.70;84.30;;;;;;4946595;28;20033;-34
2022/06/19 02:01:07;;;;;;;8.65;2.00;;;16.70;83.70;;;;;;4947712;28;20042;-34
2022/06/19 02:03:56;;;;;;;5.95;1.83;;;16.70;83.20;;;;;;4947336;28;20054;-35
2022/06/19 02:06:27;;;;;;;5.90;1.48;;;16.60;83.00;;;;;;4945875;29;20462;-34
2022/06/19 02:08:54;;;;;;;7.57;1.58;;;16.60;82.30;;;;;;4947875;28;20039;-33
2022/06/19 02:11:21;;;;;;;11.68;1.88;;;16.60;82.60;;;;;;4947477;29;20015;-35
2022/06/19 02:13:48;;;;;;;9.60;1.88;;;16.60;81.50;;;;;;4946551;29;20126;-35
2022/06/19 02:16:16;;;;;;;4.85;1.48;;;16.60;81.00;;;;;;4946991;29;20150;-34
2022/06/19 02:18:44;;;;;;;6.15;1.52;;;16.60;81.10;;;;;;4947889;28;20027;-34
2022/06/19 02:21:18;;;;;;;8.23;1.60;;;16.60;81.00;;;;;;4946919;28;20023;-35
2022/06/19 02:23:45;;;;;;;6.32;1.75;;;16.60;81.20;;;;;;4948217;28;20592;-33
2022/06/19 02:26:11;;;;;;;6.90;1.88;;;16.60;81.30;;;;;;4951091;29;20066;-35
2022/06/19 02:28:40;;;;;;;7.82;2.60;;;16.50;81.70;;;;;;4951375;28;20027;-34
2022/06/19 02:31:06;;;;;;;9.00;1.73;;;16.50;82.70;;;;;;4951517;29;20069;-34
2022/06/19 02:33:38;;;;;;;7.40;1.88;;;16.50;83.40;;;;;;4950455;28;20479;-33
2022/06/19 02:36:30;;;;;;;8.52;2.50;;;16.40;84.00;;;;;;4950932;29;20035;-35
2022/06/19 02:38:56;;;;;;;6.82;2.10;;;16.40;84.90;;;;;;4950161;28;20038;-34
2022/06/19 02:41:30;;;;;;;12.27;2.78;;;16.30;85.30;;;;;;4949328;28;20093;-34
2022/06/19 02:43:56;;;;;;;11.32;2.42;;;16.30;85.70;;;;;;4951103;28;20019;-34
2022/06/19 02:46:21;;;;;;;7.63;1.73;;;16.30;86.00;;;;;;4950339;29;20283;-35
2022/06/19 02:48:47;;;;;;;5.97;1.83;;;16.30;86.20;;;;;;4950404;29;20078;-34
2022/06/19 02:51:12;;;;;;;8.23;2.28;;;16.30;86.60;;;;;;4950875;29;20387;-33
2022/06/19 02:53:38;;;;;;;7.05;1.67;;;16.30;86.60;;;;;;4950582;29;20041;-34
2022/06/19 02:56:04;;;;;;;7.05;1.92;;;16.40;86.80;;;;;;4950021;28;20038;-34
2022/06/19 02:58:30;;;;;;;7.72;1.95;;;16.40;86.90;;;;;;4950347;29;20442;-35
2022/06/19 03:00:55;;;;;;;9.88;1.90;;;16.30;87.10;;;;;;4951148;28;20015;-34
2022/06/19 03:03:35;;;;;;;9.93;1.83;;;16.30;87.50;;;;;;4949319;29;20035;-34
2022/06/19 03:06:02;;;;;;;5.72;1.52;;;16.20;87.80;;;;;;4950576;28;20023;-34
2022/06/19 03:08:27;;;;;;;7.15;1.58;;;16.20;87.90;;;;;;4949786;28;20058;-34
2022/06/19 03:10:53;;;;;;;5.00;1.30;;;16.20;88.00;;;;;;4950854;29;20059;-35
2022/06/19 03:13:20;;;;;;;11.18;1.90;;;16.20;87.90;;;;;;4950770;28;20039;-34
2022/06/19 03:15:46;;;;;;;6.55;1.50;;;16.20;88.00;;;;;;4949985;28;20110;-35
2022/06/19 03:18:11;;;;;;;8.73;1.35;;;16.20;88.50;;;;;;4950578;28;20137;-35
2022/06/19 03:20:37;;;;;;;6.95;1.50;;;16.20;87.70;;;;;;4950058;29;20030;-34
2022/06/19 03:23:02;;;;;;;8.68;1.58;;;16.20;87.60;;;;;;4950214;28;20066;-35
2022/06/19 03:25:28;;;;;;;8.68;1.90;;;16.10;87.50;;;;;;4950226;29;20054;-37
2022/06/19 03:27:54;;;;;;;5.60;1.40;;;16.00;87.20;;;;;;4950481;29;20106;-35
2022/06/19 03:30:21;;;;;;;7.15;1.50;;;16.00;87.00;;;;;;4949616;29;20030;-35
2022/06/19 03:32:47;;;;;;;5.90;1.50;;;16.00;86.80;;;;;;4949985;28;20041;-34
2022/06/19 03:35:14;;;;;;;7.85;1.50;;;16.00;86.50;;;;;;4949320;28;20039;-41
2022/06/19 03:37:40;;;;;;;5.50;1.65;;;16.00;86.40;;;;;;4949050;28;20027;-35
2022/06/19 03:40:06;;;;;;;7.22;1.83;;;16.00;86.60;;;;;;4949939;29;20027;-34
2022/06/19 03:42:32;;;;;;;8.15;1.45;;;16.00;86.90;;;;;;4950009;29;20027;-32
2022/06/19 03:44:58;;;;;;;9.05;2.03;;;16.00;87.50;;;;;;4948938;29;20058;-33
2022/06/19 03:47:25;;;;;;;7.25;1.73;;;16.00;88.20;;;;;;4948938;28;20027;-35
2022/06/19 03:49:51;;;;;;;7.05;1.88;;;15.90;88.50;;;;;;4949323;28;20162;-34
2022/06/19 03:52:17;;;;;;;6.57;1.60;;;15.90;89.30;;;;;;4947825;28;20537;-35
2022/06/19 03:54:42;;;;;;;9.70;1.67;;;15.90;89.20;;;;;;4945873;28;20035;-35
2022/06/19 03:57:12;;;;;;;9.95;2.08;;;15.90;90.10;;;;;;4950063;29;20122;-35
2022/06/19 03:59:38;;;;;;;7.75;1.38;;;15.90;90.30;;;;;;4948094;29;20102;-35
2022/06/19 04:02:04;;;;;;;6.38;1.70;;;15.90;90.30;;;;;;4949805;28;20110;-34
2022/06/19 04:04:30;;;;;;;5.10;1.50;;;15.80;90.20;;;;;;4948947;28;20526;-34
2022/06/19 04:06:56;;;;;;;5.95;1.40;;;15.80;90.20;;;;;;4948887;29;20033;-34
2022/06/19 04:09:21;;;;;;;8.07;1.63;;;15.90;90.10;;;;;;4949503;29;20050;-34
2022/06/19 04:11:47;;;;;;;7.05;2.00;;;15.90;90.10;;;;;;4948634;28;20019;-33
2022/06/19 04:14:15;;;;;;;7.25;1.60;;;15.90;90.10;;;;;;4948661;29;20471;-34
2022/06/19 04:16:42;;;;;;;6.80;2.30;;;15.90;90.10;;;;;;4949317;28;20024;-34
2022/06/19 04:19:09;;;;;;;5.90;1.92;;;15.90;90.10;;;;;;4948838;28;20052;-34
2022/06/19 04:21:39;;;;;;;9.15;1.73;;;15.90;90.00;;;;;;4949298;28;20093;-34
2022/06/19 04:24:05;;;;;;;6.82;1.70;;;15.90;90.00;;;;;;4950230;28;20557;-34
2022/06/19 04:26:34;;;;;;;7.57;1.98;;;15.90;89.90;;;;;;4948630;28;20158;-34
2022/06/19 04:29:00;;;;;;;5.22;1.40;;;15.90;89.80;;;;;;4948835;28;20023;-34
2022/06/19 04:31:26;;;;;;;6.20;1.70;;;16.00;89.90;;;;;;4949531;29;20024;-35
2022/06/19 04:33:52;;;;;;;6.88;1.95;;;16.00;90.00;;;;;;4948636;28;20031;-35
2022/06/19 04:36:19;;;;;;;5.97;1.42;;;16.10;89.90;;;;;;4949499;28;20043;-34
2022/06/19 04:38:47;;;;;;;7.60;1.85;;;16.10;89.60;;;;;;4949558;28;20439;-35
2022/06/19 04:41:18;;;;;;;6.15;1.70;;;16.10;88.80;;;;;;4948408;28;20027;-33
2022/06/19 04:43:43;;;;;;;6.78;1.85;;;16.10;87.50;;;;;;4949601;28;20444;-34
2022/06/19 04:46:10;;;;;;;4.68;1.40;;;16.10;87.00;;;;;;4949674;28;20042;-36
2022/06/19 04:48:36;;;;;;;6.72;1.23;;;16.10;86.00;;;;;;4948109;28;20026;-35
2022/06/19 04:51:01;;;;;;;6.38;1.80;;;16.20;83.30;;;;;;4949424;29;20081;-34
2022/06/19 04:53:28;;;;;;;4.72;1.67;;;16.10;84.00;;;;;;4948266;29;20517;-34
2022/06/19 04:55:54;;;;;;;7.28;1.30;;;16.20;84.10;;;;;;4947436;28;20027;-35
2022/06/19 04:58:22;;;;;;;4.82;1.23;;;16.30;84.20;;;;;;4948060;28;20042;-35
2022/06/19 05:00:52;;;;;;;5.40;1.38;;;16.30;84.00;;;;;;4948018;28;20721;-34
2022/06/19 05:03:19;;;;;;;4.63;1.30;;;16.30;83.80;;;;;;4948105;29;20230;-35
2022/06/19 05:05:45;;;;;;;4.20;1.20;;;16.40;83.80;;;;;;4948207;28;20464;-34
2022/06/19 05:08:11;;;;;;;6.88;1.80;;;16.40;84.00;;;;;;4948048;29;20372;-34
2022/06/19 05:10:37;;;;;;;3.63;1.38;;;16.50;84.10;;;;;;4948378;28;20406;-34
2022/06/19 05:13:06;;;;;;;5.05;1.20;;;16.50;84.40;;;;;;4949083;29;20031;-33
2022/06/19 05:15:32;;;;;;;3.95;1.15;;;16.50;84.50;;;;;;4947808;28;20459;-33
2022/06/19 05:17:58;;;;;;;6.68;2.03;;;16.60;84.70;;;;;;4948519;29;20027;-35
2022/06/19 05:20:24;;;;;;;4.25;1.10;;;16.60;84.70;;;;;;4947860;29;20023;-34
2022/06/19 05:22:49;;;;;;;4.60;1.23;;;16.70;84.80;;;;;;4948104;28;20038;-34
2022/06/19 05:25:15;;;;;;;5.05;1.55;;;16.80;84.90;;;;;;4948141;29;20114;-34
2022/06/19 05:27:41;;;;;;;5.45;1.30;;;16.70;84.90;;;;;;4947917;29;20050;-34
2022/06/19 05:30:10;;;;;;;3.65;1.25;;;16.80;84.80;;;;;;4947762;28;20051;-34
2022/06/19 05:32:35;;;;;;;4.63;1.00;;;16.90;84.90;;;;;;4947689;28;20027;-34
2022/06/19 05:35:01;;;;;;;4.88;1.02;;;17.00;84.90;;;;;;4948347;29;20039;-35
2022/06/19 05:37:26;;;;;;;4.40;1.30;;;17.10;84.60;;;;;;4946751;28;20027;-35
2022/06/19 05:39:52;;;;;;;3.33;1.00;;;17.10;84.50;;;;;;4948209;28;20052;-34
2022/06/19 05:42:18;;;;;;;7.15;1.60;;;17.20;84.40;;;;;;4947153;29;20058;-34
2022/06/19 05:44:44;;;;;;;6.80;1.45;;;17.20;84.10;;;;;;4947396;29;20035;-34
2022/06/19 05:47:09;;;;;;;8.55;2.38;;;17.20;84.20;;;;;;4948162;28;20023;-34
2022/06/19 05:49:35;;;;;;;4.88;1.20;;;17.20;84.40;;;;;;4947691;28;20391;-34
2022/06/19 05:52:02;;;;;;;5.50;1.45;;;17.30;84.10;;;;;;4947767;28;20058;-34
2022/06/19 05:54:29;;;;;;;3.67;0.90;;;17.40;83.90;;;;;;4946944;28;20094;-35
2022/06/19 05:56:55;;;;;;;5.63;1.33;;;17.50;83.70;;;;;;4947607;29;20051;-34
2022/06/19 05:59:20;;;;;;;2.67;0.93;;;17.60;83.20;;;;;;4946454;28;20027;-35
2022/06/19 06:01:46;;;;;;;4.78;0.70;;;17.60;82.80;;;;;;4947470;29;20027;-35
2022/06/19 06:04:11;;;;;;;4.15;1.23;;;17.70;81.90;;;;;;4945871;29;20078;-36
2022/06/19 06:06:40;;;;;;;2.97;0.70;;;17.80;81.40;;;;;;4945925;28;20360;-35
2022/06/19 06:09:06;;;;;;;3.30;1.10;;;17.80;80.00;;;;;;4946424;29;20058;-35
2022/06/19 06:11:32;;;;;;;1.88;0.75;;;17.90;80.10;;;;;;4946169;28;20545;-34
2022/06/19 06:13:57;;;;;;;3.22;1.02;;;17.90;80.10;;;;;;4947142;28;20031;-35
2022/06/19 06:16:24;;;;;;;2.47;0.88;;;18.00;79.00;;;;;;4947621;29;20525;-34
2022/06/19 06:18:50;;;;;;;2.47;0.80;;;18.10;78.70;;;;;;4946573;28;20042;-35
2022/06/19 06:21:19;;;;;;;2.38;0.80;;;18.10;77.40;;;;;;4947181;28;20039;-35
2022/06/19 06:23:45;;;;;;;1.58;0.70;;;18.20;77.70;;;;;;4947301;29;20039;-34
2022/06/19 06:26:13;;;;;;;2.47;0.80;;;18.20;77.50;;;;;;4946249;28;20092;-35
2022/06/19 06:28:41;;;;;;;4.35;0.90;;;18.20;76.90;;;;;;4946860;28;20036;-34
2022/06/19 06:31:07;;;;;;;2.80;0.98;;;18.20;76.20;;;;;;4946983;29;20038;-35
2022/06/19 06:33:33;;;;;;;2.33;0.70;;;18.10;76.60;;;;;;4946248;29;20039;-35
2022/06/19 06:35:59;;;;;;;2.17;0.85;;;18.10;76.50;;;;;;4956966;28;20027;-35
2022/06/19 06:38:25;;;;;;;1.85;0.80;;;18.00;77.00;;;;;;4958338;28;20058;-36
2022/06/19 06:40:51;;;;;;;3.67;0.98;;;17.90;77.00;;;;;;4945667;28;20118;-34
2022/06/19 06:43:18;;;;;;;3.20;1.23;;;17.80;77.30;;;;;;4946312;29;20380;-35
2022/06/19 06:45:44;;;;;;;4.63;1.08;;;17.70;77.90;;;;;;4945110;29;20513;-35
2022/06/19 06:48:10;;;;;;;3.55;0.80;;;17.60;77.90;;;;;;4946430;29;20031;-34
2022/06/19 06:50:38;;;;;;;6.13;1.13;;;17.60;78.50;;;;;;4945888;29;20019;-34
2022/06/19 06:53:04;;;;;;;2.50;0.82;;;17.50;79.20;;;;;;4946745;29;20039;-34
2022/06/19 06:55:30;;;;;;;2.83;1.00;;;17.50;80.10;;;;;;4945135;29;20028;-34
2022/06/19 06:57:55;;;;;;;3.13;0.80;;;17.50;81.30;;;;;;4946281;29;20055;-34
2022/06/19 07:00:23;;;;;;;5.68;1.30;;;17.40;82.20;;;;;;4945646;29;20031;-35
2022/06/19 07:02:50;;;;;;;6.22;1.33;;;17.30;84.30;;;;;;4946525;28;20034;-35
2022/06/19 07:05:16;;;;;;;4.78;0.90;;;17.00;85.40;;;;;;4950872;28;20015;-34
2022/06/19 07:07:42;;;;;;;4.03;1.02;;;16.90;85.90;;;;;;4947162;28;20031;-35
2022/06/19 07:10:08;;;;;;;4.93;1.35;;;16.80;86.60;;;;;;4947372;28;20507;-34
2022/06/19 07:12:34;;;;;;;3.35;1.27;;;16.70;87.50;;;;;;4948377;29;20245;-35
2022/06/19 07:14:59;;;;;;;4.63;1.30;;;16.60;88.10;;;;;;4948314;29;20182;-35
2022/06/19 07:17:25;;;;;;;4.38;1.10;;;16.50;89.30;;;;;;4949270;29;20364;-34
2022/06/19 07:19:50;;;;;;;4.70;1.60;;;16.40;89.90;;;;;;4949052;29;20042;-34
2022/06/19 07:22:17;;;;;;;5.55;1.40;;;16.30;91.50;;;;;;4948236;29;20023;-34
2022/06/19 07:24:44;;;;;;;10.40;1.85;;;16.10;91.80;;;;;;4949627;29;20050;-35
2022/06/19 07:27:10;;;;;;;6.78;1.40;;;16.00;92.20;;;;;;4949851;28;20029;-35
2022/06/19 07:29:43;;;;;;;5.55;1.50;;;15.90;92.70;;;;;;4948579;29;20031;-36
2022/06/19 07:32:09;;;;;;;9.50;1.60;;;15.90;92.40;;;;;;4949207;29;20562;-34
2022/06/19 07:34:35;;;;;;;6.45;1.45;;;15.90;92.80;;;;;;4948993;28;20035;-34
2022/06/19 07:37:01;;;;;;;5.80;1.55;;;15.80;93.40;;;;;;4948711;28;20170;-34
2022/06/19 07:39:27;;;;;;;9.80;1.40;;;15.70;93.10;;;;;;4948761;28;20058;-35
2022/06/19 07:41:52;;;;;;;6.20;1.65;;;15.70;93.20;;;;;;4949697;29;20696;-35
2022/06/19 07:44:18;;;;;;;4.57;1.35;;;15.80;93.40;;;;;;4947835;29;20475;-34
2022/06/19 07:52:12;;;;;;;4.28;1.45;;;15.80;94.90;;;;;;4947780;29;20047;-35
2022/06/19 07:54:38;;;;;;;5.72;1.30;;;15.60;94.60;;;;;;4949349;28;20036;-34
2022/06/19 07:57:03;;;;;;;8.57;1.90;;;15.50;94.90;;;;;;4948116;29;20487;-33
2022/06/19 07:59:29;;;;;;;5.22;1.38;;;15.40;95.30;;;;;;4949268;29;20042;-34
2022/06/19 08:01:54;;;;;;;6.45;1.58;;;15.40;95.60;;;;;;4949254;29;20034;-35
2022/06/19 08:04:23;;;;;;;6.97;1.65;;;15.30;95.90;;;;;;4948656;28;20039;-34
2022/06/19 08:06:49;;;;;;;10.85;2.50;;;15.30;96.10;;;;;;4949012;28;20023;-35
2022/06/19 08:09:14;;;;;;;9.45;2.00;;;15.20;99.40;;;;;;4948830;29;20392;-33
2022/06/19 08:11:40;;;;;;;11.98;2.65;;;15.10;99.30;;;;;;4948389;29;20102;-34
2022/06/19 08:14:05;;;;;;;6.85;1.88;;;14.90;99.70;;;;;;4949341;29;20450;-34
2022/06/19 08:16:31;;;;;;;7.15;1.90;;;14.90;99.70;;;;;;4948963;29;20029;-34
2022/06/19 08:18:56;;;;;;;7.03;1.85;;;14.90;99.90;;;;;;4948894;29;20035;-34
2022/06/19 08:21:22;;;;;;;10.93;2.80;;;14.90;99.90;;;;;;4946973;28;20752;-35
2022/06/19 08:23:48;;;;;;;6.15;1.98;;;14.90;99.90;;;;;;4948411;28;20026;-35
2022/06/19 08:26:13;;;;;;;6.78;1.83;;;14.90;99.90;;;;;;4947563;29;20031;-35
2022/06/19 08:31:07;;;;;;;12.98;2.38;;;14.80;99.90;;;;;;4948135;28;20232;-34
2022/06/19 08:33:33;;;;;;;6.97;1.80;;;14.80;99.90;;;;;;4947220;29;20035;-36
2022/06/19 08:36:04;;;;;;;7.82;2.20;;;14.80;99.90;;;;;;4948880;29;20031;-35
2022/06/19 08:38:38;;;;;;;8.60;1.88;;;14.80;99.90;;;;;;4948196;28;20383;-44
2022/06/19 08:41:26;;;;;;;7.15;1.55;;;14.90;99.90;;;;;;4948289;28;20427;-35
2022/06/19 08:44:13;;;;;;;9.02;1.90;;;14.90;99.90;;;;;;4947577;29;20360;-34
2022/06/19 08:47:12;;;;;;;9.52;1.70;;;15.10;99.90;;;;;;4947871;28;20065;-35
2022/06/19 08:49:54;;;;;;;6.65;1.60;;;15.20;99.90;;;;;;4945075;29;20031;-34
2022/06/19 08:52:25;;;;;;;6.28;1.80;;;15.30;99.90;;;;;;4947819;29;20031;-33
2022/06/19 08:55:25;;;;;;;5.10;1.55;;;15.30;99.90;;;;;;4947926;29;20046;-35
2022/06/19 08:58:25;;;;;;;5.82;1.77;;;15.30;99.90;;;;;;4947673;29;20105;-34
2022/06/19 09:01:09;;;;;;;8.77;1.92;;;15.30;99.90;;;;;;4945592;28;20451;-35
2022/06/19 09:07:21;;;;;;;4.20;1.40;;;15.40;99.90;;;;;;4928922;29;20097;-34
2022/06/19 09:10:07;;;;;;;7.50;1.30;;;15.40;99.90;;;;;;4945804;29;20038;-35
2022/06/19 09:12:52;;;;;;;5.75;1.67;;;15.50;99.90;;;;;;4947364;29;20736;-36
2022/06/19 09:15:25;;;;;;;8.63;1.80;;;15.60;99.90;;;;;;4947191;28;20039;-35
2022/06/19 09:18:01;;;;;;;8.65;1.92;;;15.60;99.90;;;;;;4948689;28;20378;-35
2022/06/19 09:20:50;;;;;;;6.95;1.70;;;15.70;99.90;;;;;;4947137;28;20534;-35
2022/06/19 09:23:26;;;;;;;3.80;1.50;;;15.80;99.90;;;;;;4946965;28;20110;-35
2022/06/19 09:26:16;;;;;;;6.53;1.30;;;16.00;99.90;;;;;;4947770;28;20035;-35
2022/06/19 09:28:58;;;;;;;8.95;2.17;;;16.20;99.90;;;;;;4946905;28;20141;-34
2022/06/19 09:31:48;;;;;;;5.47;1.90;;;16.40;99.90;;;;;;4936135;29;20035;-36
2022/06/19 09:34:28;;;;;;;6.65;1.80;;;16.50;99.90;;;;;;4945717;28;20519;-34
2022/06/19 09:37:05;;;;;;;7.55;2.42;;;16.60;99.90;;;;;;4946521;29;20548;-35
2022/06/19 09:39:46;;;;;;;4.40;1.50;;;16.70;99.90;;;;;;4947378;28;20031;-34
2022/06/19 09:42:22;;;;;;;7.63;1.80;;;16.80;99.90;;;;;;4946793;28;20020;-35
2022/06/19 09:45:00;;;;;;;6.72;2.00;;;16.80;99.20;;;;;;4947155;28;20035;-36
2022/06/19 09:47:44;;;;;;;6.03;1.40;;;16.80;98.90;;;;;;4947181;29;20069;-34
2022/06/19 09:50:21;;;;;;;4.70;1.50;;;16.90;98.60;;;;;;4946604;29;20062;-35
2022/06/19 09:53:04;;;;;;;4.78;1.25;;;17.00;98.50;;;;;;4946921;28;20070;-35
2022/06/19 09:55:43;;;;;;;4.88;1.33;;;17.00;98.40;;;;;;4946370;28;20027;-34
2022/06/19 09:58:32;;;;;;;2.80;1.05;;;17.10;98.30;;;;;;4946042;29;20550;-35
2022/06/19 10:00:59;;;;;;;4.20;1.30;;;17.20;98.30;;;;;;4947434;28;20042;-34
2022/06/19 10:03:42;;;;;;;4.57;1.20;;;17.30;98.20;;;;;;4946761;29;20169;-34
2022/06/19 10:06:18;;;;;;;3.75;1.00;;;17.40;98.00;;;;;;4946891;28;20384;-35
2022/06/19 10:09:01;;;;;;;3.90;1.02;;;17.60;97.90;;;;;;4947113;29;20439;-37
2022/06/19 10:11:38;;;;;;;4.25;1.20;;;17.80;97.50;;;;;;4945427;28;20067;-34
2022/06/19 10:14:09;;;;;;;5.25;1.15;;;18.00;97.10;;;;;;4947711;28;20428;-34
2022/06/19 10:16:52;;;;;;;3.95;1.40;;;18.10;96.40;;;;;;4946149;28;20098;-34
2022/06/19 10:19:37;;;;;;;4.93;1.15;;;18.20;96.30;;;;;;4927562;29;20090;-33
2022/06/19 10:22:24;;;;;;;3.70;1.00;;;18.30;96.20;;;;;;4944679;29;20118;-35
2022/06/19 10:25:13;;;;;;;4.00;1.27;;;18.40;96.10;;;;;;4946826;28;20027;-35
2022/06/19 10:28:15;;;;;;;3.45;1.10;;;18.50;95.70;;;;;;4946289;29;20019;-34
2022/06/19 10:30:59;;;;;;;5.20;1.45;;;18.50;95.00;;;;;;4947789;28;20035;-36
2022/06/19 10:33:36;;;;;;;3.28;0.93;;;18.40;95.00;;;;;;4946891;28;20039;-35
2022/06/19 10:36:37;;;;;;;3.58;1.20;;;18.40;94.90;;;;;;4947264;29;20432;-35
2022/06/19 10:39:21;;;;;;;4.13;1.10;;;18.50;94.60;;;;;;4942553;29;20087;-34
2022/06/19 10:42:01;;;;;;;4.93;1.42;;;18.60;94.60;;;;;;4945141;29;20360;-35
2022/06/19 10:45:04;;;;;;;6.28;1.73;;;18.70;94.30;;;;;;4946290;28;20042;-37
2022/06/19 10:47:32;;;;;;;;;;;18.80;94.00;;;;;;4949666;28;20402;-36
2022/06/19 10:50:04;;;;;;;3.72;1.50;;;18.80;94.00;;;;;;4958760;28;19964;-35
2022/06/19 10:52:52;;;;;;;5.10;1.48;;;18.90;94.10;;;;;;4959273;28;20122;-35
2022/06/19 10:55:23;;;;;;;7.47;1.83;;;18.90;94.30;;;;;;4951104;28;20065;-36
2022/06/19 10:58:07;;;;;;;3.80;1.30;;;19.00;94.20;;;;;;4950427;28;20054;-35
2022/06/19 11:00:33;;;;;;;5.97;1.58;;;19.00;94.30;;;;;;4949464;29;20031;-34
2022/06/19 11:06:07;;;;;;;5.65;2.05;;;19.00;94.40;;;;;;4950777;29;20117;-36
2022/06/19 11:08:35;;;;;;;7.05;2.00;;;19.00;94.30;;;;;;4949207;28;20479;-35
2022/06/19 11:11:03;;;;;;;7.60;2.13;;;19.00;94.50;;;;;;4950920;28;20074;-35
2022/06/19 11:13:58;;;;;;;7.57;2.03;;;19.00;94.50;;;;;;4950403;28;20114;-35
2022/06/19 11:16:24;;;;;;;5.07;1.90;;;19.00;94.50;;;;;;4931606;29;20043;-36
2022/06/19 11:18:51;;;;;;;4.60;2.05;;;19.00;94.70;;;;;;4946359;29;20023;-35
2022/06/19 11:21:21;;;;;;;4.85;1.80;;;19.10;94.60;;;;;;4949920;28;20169;-35
2022/06/19 11:23:46;;;;;;;5.43;1.48;;;19.20;94.50;;;;;;4950735;28;20031;-35
2022/06/19 11:26:16;;;;;;;4.13;1.50;;;19.20;94.50;;;;;;4950887;29;20031;-36
2022/06/19 11:29:02;;;;;;;5.47;1.80;;;19.30;94.50;;;;;;4949859;29;20023;-35
2022/06/19 11:31:34;;;;;;;5.60;1.70;;;19.40;94.50;;;;;;4950651;28;20027;-35
2022/06/19 11:37:16;;;;;;;5.43;1.95;;;19.60;94.20;;;;;;4931470;29;20079;-35
2022/06/19 11:39:54;;;;;;;6.57;2.05;;;19.50;94.40;;;;;;4947391;28;20074;-34
2022/06/19 11:42:50;;;;;;;4.43;1.90;;;19.40;94.60;;;;;;4949788;28;20501;-34
2022/06/19 11:45:15;;;;;;;3.97;1.60;;;19.30;94.50;;;;;;4946360;29;20046;-35
2022/06/19 11:47:45;;;;;;;8.10;2.25;;;19.10;94.60;;;;;;4949377;29;20055;-35
2022/06/19 11:50:21;;;;;;;5.82;2.08;;;19.10;94.90;;;;;;4948525;28;20030;-34
2022/06/19 11:52:58;;;;;;;7.00;2.00;;;19.10;94.80;;;;;;4949811;28;20023;-36
2022/06/19 11:55:30;;;;;;;3.35;1.50;;;19.20;94.90;;;;;;4949368;28;20447;-35
2022/06/19 11:58:02;;;;;;;4.88;1.95;;;19.20;94.80;;;;;;4948240;28;20039;-34
2022/06/19 12:00:34;;;;;;;5.20;1.70;;;19.30;94.80;;;;;;4949095;28;20121;-36
2022/06/19 12:03:04;;;;;;;7.18;2.33;;;19.20;94.90;;;;;;4949965;28;20138;-35
2022/06/19 12:05:38;;;;;;;6.45;1.70;;;19.10;95.00;;;;;;4949779;28;20114;-36
2022/06/19 12:08:19;;;;;;;4.68;1.50;;;19.10;95.10;;;;;;4931479;29;20735;-35
2022/06/19 12:11:01;;;;;;;4.47;1.33;;;19.10;95.10;;;;;;4946326;28;20108;-34
2022/06/19 12:13:33;;;;;;;3.63;1.58;;;19.30;95.10;;;;;;4956886;28;20028;-34
2022/06/19 12:16:17;;;;;;;5.65;1.40;;;19.40;94.90;;;;;;4955742;28;20633;-35
2022/06/19 12:18:43;;;;;;;5.75;1.80;;;19.40;94.70;;;;;;4958545;28;20391;-36
2022/06/19 12:21:20;;;;;;;4.57;1.83;;;19.40;94.50;;;;;;4948647;28;20066;-36
2022/06/19 12:24:14;;;;;;;7.38;1.70;;;19.30;94.70;;;;;;4948657;29;20417;-36
2022/06/19 12:26:52;;;;;;;6.75;2.13;;;19.20;94.80;;;;;;4946903;29;20335;-35
2022/06/19 12:29:39;;;;;;;9.10;2.13;;;19.00;95.10;;;;;;4948860;28;20019;-36
2022/06/19 12:32:19;;;;;;;4.70;1.65;;;18.80;95.40;;;;;;4948779;28;20081;-34
2022/06/19 12:34:47;;;;;;;8.73;2.88;;;18.60;95.80;;;;;;4949162;28;20039;-35
2022/06/19 12:37:23;;;;;;;5.40;2.25;;;18.50;95.90;;;;;;4949392;28;20171;-35
2022/06/19 12:39:49;;;;;;;9.90;2.08;;;18.40;96.00;;;;;;4948703;28;20027;-34
2022/06/19 12:42:23;;;;;;;6.38;2.28;;;18.30;96.10;;;;;;4949245;29;20560;-35
2022/06/19 12:44:52;;;;;;;6.22;2.03;;;18.20;96.10;;;;;;4949325;29;20034;-35
2022/06/19 12:47:43;;;;;;;6.45;2.40;;;18.20;96.20;;;;;;4948210;29;20027;-35
2022/06/19 12:50:43;;;;;;;6.93;1.98;;;18.10;96.30;;;;;;4948406;28;20039;-35
2022/06/19 12:53:35;;;;;;;6.00;2.33;;;18.20;96.40;;;;;;4937563;29;20043;-36
2022/06/19 12:56:19;;;;;;;5.93;2.33;;;18.50;96.20;;;;;;4947734;28;20557;-35
2022/06/19 12:59:16;;;;;;;6.63;2.10;;;18.60;95.80;;;;;;4947673;29;20491;-35
2022/06/19 13:02:19;;;;;;;6.03;2.28;;;18.70;95.80;;;;;;4947545;29;20436;-36
2022/06/19 13:05:09;;;;;;;7.57;3.03;;;18.90;95.80;;;;;;4926439;29;20036;-34
2022/06/19 13:08:14;;;;;;;7.03;2.70;;;19.20;95.10;;;;;;4946319;28;20098;-36
2022/06/19 13:10:45;;;;;;;4.18;2.35;;;19.40;94.80;;;;;;4928997;29;20034;-36
2022/06/19 13:13:17;;;;;;;3.53;1.90;;;19.40;94.50;;;;;;4947990;29;20027;-34
2022/06/19 13:15:42;;;;;;;4.00;1.48;;;19.40;94.60;;;;;;4948604;29;20093;-36
2022/06/19 13:18:08;;;;;;;3.83;1.70;;;19.40;94.50;;;;;;4947943;29;20487;-36
2022/06/19 13:20:36;;;;;;;3.25;1.48;;;19.40;94.60;;;;;;4947286;29;20055;-35
2022/06/19 13:23:14;;;;;;;4.10;1.20;;;19.40;94.60;;;;;;4946919;28;20043;-36
2022/06/19 13:25:57;;;;;;;4.22;1.05;;;19.50;94.60;;;;;;4954412;28;20027;-37
2022/06/19 13:28:56;;;;;;;2.55;1.00;;;19.60;94.50;;;;;;4951359;28;20029;-38
2022/06/19 13:31:43;;;;;;;2.17;1.05;;;19.60;94.50;;;;;;4948226;28;20039;-35